Aviation Digital Data Service (ADDS)

Output produced by METARs form (0030 UTC 21 January 2019)
found at http://www.aviationweather.gov/metar/data/
 
METAR text: YBTL 210000Z 12015KT 9999 FEW030 30/20 Q1012 NOSIG
Conditions at: YBTL (TOWNSVILLE(CIV/M, AU) observed 0000 UTC 21 January 2019
Temperature: 30.0°C (86°F)
Dewpoint: 20.0°C (68°F) [RH = 55%]
Pressure (altimeter): 29.88 inches Hg (1012.0 mb)
Winds: from the ESE (120 degrees) at 17 MPH (15 knots; 7.7 m/s)
Visibility: 6 or more miles (10+ km)
Ceiling: at least 12,000 feet AGL
Clouds: few clouds at 3000 feet AGL
Weather: no significant weather observed at this time

METAR text: YBTL 202330Z 12016KT 9999 FEW029 29/20 Q1012 NOSIG
Conditions at: YBTL (TOWNSVILLE(CIV/M, AU) observed 2330 UTC 20 January 2019
Temperature: 29.0°C (84°F)
Dewpoint: 20.0°C (68°F) [RH = 58%]
Pressure (altimeter): 29.88 inches Hg (1012.0 mb)
Winds: from the ESE (120 degrees) at 18 MPH (16 knots; 8.2 m/s)
Visibility: 6 or more miles (10+ km)
Ceiling: at least 12,000 feet AGL
Clouds: few clouds at 2900 feet AGL
Weather: no significant weather observed at this time

METAR text: YBTL 202300Z 12016KT 9999 FEW025 29/20 Q1012 NOSIG
Conditions at: YBTL (TOWNSVILLE(CIV/M, AU) observed 2300 UTC 20 January 2019
Temperature: 29.0°C (84°F)
Dewpoint: 20.0°C (68°F) [RH = 58%]
Pressure (altimeter): 29.88 inches Hg (1012.0 mb)
Winds: from the ESE (120 degrees) at 18 MPH (16 knots; 8.2 m/s)
Visibility: 6 or more miles (10+ km)
Ceiling: at least 12,000 feet AGL
Clouds: few clouds at 2500 feet AGL
Weather: no significant weather observed at this time

METAR text: YBTL 202230Z 12015KT 9999 FEW022 29/20 Q1012 NOSIG
Conditions at: YBTL (TOWNSVILLE(CIV/M, AU) observed 2230 UTC 20 January 2019
Temperature: 29.0°C (84°F)
Dewpoint: 20.0°C (68°F) [RH = 58%]
Pressure (altimeter): 29.88 inches Hg (1012.0 mb)
Winds: from the ESE (120 degrees) at 17 MPH (15 knots; 7.7 m/s)
Visibility: 6 or more miles (10+ km)
Ceiling: at least 12,000 feet AGL
Clouds: few clouds at 2200 feet AGL
Weather: no significant weather observed at this time

METAR text: YBTL 202200Z 13013KT 9999 FEW022 28/20 Q1011 NOSIG
Conditions at: YBTL (TOWNSVILLE(CIV/M, AU) observed 2200 UTC 20 January 2019
Temperature: 28.0°C (82°F)
Dewpoint: 20.0°C (68°F) [RH = 62%]
Pressure (altimeter): 29.85 inches Hg (1011.0 mb)
Winds: from the SE (130 degrees) at 15 MPH (13 knots; 6.7 m/s)
Visibility: 6 or more miles (10+ km)
Ceiling: at least 12,000 feet AGL
Clouds: few clouds at 2200 feet AGL
Weather: no significant weather observed at this time

METAR text: YBTL 202130Z 15008KT 9999 FEW025 27/20 Q1011 NOSIG
Conditions at: YBTL (TOWNSVILLE(CIV/M, AU) observed 2130 UTC 20 January 2019
Temperature: 27.0°C (81°F)
Dewpoint: 20.0°C (68°F) [RH = 66%]
Pressure (altimeter): 29.85 inches Hg (1011.0 mb)
Winds: from the SSE (150 degrees) at 9 MPH (8 knots; 4.1 m/s)
Visibility: 6 or more miles (10+ km)
Ceiling: at least 12,000 feet AGL
Clouds: few clouds at 2500 feet AGL
Weather: no significant weather observed at this time

METAR text: YBTL 202100Z 15008KT 9999 FEW025 26/20 Q1011 NOSIG
Conditions at: YBTL (TOWNSVILLE(CIV/M, AU) observed 2100 UTC 20 January 2019
Temperature: 26.0°C (79°F)
Dewpoint: 20.0°C (68°F) [RH = 70%]
Pressure (altimeter): 29.85 inches Hg (1011.0 mb)
Winds: from the SSE (150 degrees) at 9 MPH (8 knots; 4.1 m/s)
Visibility: 6 or more miles (10+ km)
Ceiling: at least 12,000 feet AGL
Clouds: few clouds at 2500 feet AGL
Weather: no significant weather observed at this time

METAR text: YBTL 202030Z 15008KT 9999 FEW025 25/20 Q1011 NOSIG
Conditions at: YBTL (TOWNSVILLE(CIV/M, AU) observed 2030 UTC 20 January 2019
Temperature: 25.0°C (77°F)
Dewpoint: 20.0°C (68°F) [RH = 74%]
Pressure (altimeter): 29.85 inches Hg (1011.0 mb)
Winds: from the SSE (150 degrees) at 9 MPH (8 knots; 4.1 m/s)
Visibility: 6 or more miles (10+ km)
Ceiling: at least 12,000 feet AGL
Clouds: few clouds at 2500 feet AGL
Weather: no significant weather observed at this time

METAR text: YBTL 202000Z 16006KT 9999 FEW023 24/20 Q1011
Conditions at: YBTL (TOWNSVILLE(CIV/M, AU) observed 2000 UTC 20 January 2019
Temperature: 24.0°C (75°F)
Dewpoint: 20.0°C (68°F) [RH = 78%]
Pressure (altimeter): 29.85 inches Hg (1011.0 mb)
Winds: from the SSE (160 degrees) at 7 MPH (6 knots; 3.1 m/s)
Visibility: 6 or more miles (10+ km)
Ceiling: at least 12,000 feet AGL
Clouds: few clouds at 2300 feet AGL
Weather: no significant weather observed at this time

METAR text: YBTL 201930Z AUTO 16007KT 9999 // SCT071 24/20 Q1010
Conditions at: YBTL (TOWNSVILLE(CIV/M, AU) observed 1930 UTC 20 January 2019
Temperature: 24.0°C (75°F)
Dewpoint: 20.0°C (68°F) [RH = 78%]
Pressure (altimeter): 29.82 inches Hg (1010.0 mb)
Winds: from the SSE (160 degrees) at 8 MPH (7 knots; 3.6 m/s)
Visibility: 6 or more miles (10+ km)
Ceiling: at least 12,000 feet AGL
Clouds: scattered clouds at 7100 feet AGL
Weather: no significant weather observed at this time

METAR text: YBTL 201900Z AUTO 19005KT 9999 // NCD 23/20 Q1010
Conditions at: YBTL (TOWNSVILLE(CIV/M, AU) observed 1900 UTC 20 January 2019
Temperature: 23.0°C (73°F)
Dewpoint: 20.0°C (68°F) [RH = 83%]
Pressure (altimeter): 29.82 inches Hg (1010.0 mb)
Winds: from the S (190 degrees) at 6 MPH (5 knots; 2.6 m/s)
Visibility: 6 or more miles (10+ km)
Ceiling: at least 12,000 feet AGL
Clouds: sky clear below 12,000 feet AGL
Weather: no significant weather observed at this time

METAR text: YBTL 201830Z AUTO 16006KT 9999 // NCD 24/20 Q1010
Conditions at: YBTL (TOWNSVILLE(CIV/M, AU) observed 1830 UTC 20 January 2019
Temperature: 24.0°C (75°F)
Dewpoint: 20.0°C (68°F) [RH = 78%]
Pressure (altimeter): 29.82 inches Hg (1010.0 mb)
Winds: from the SSE (160 degrees) at 7 MPH (6 knots; 3.1 m/s)
Visibility: 6 or more miles (10+ km)
Ceiling: at least 12,000 feet AGL
Clouds: sky clear below 12,000 feet AGL
Weather: no significant weather observed at this time

METAR text: YBTL 201800Z AUTO 15006KT 9999 // NCD 24/19 Q1010
Conditions at: YBTL (TOWNSVILLE(CIV/M, AU) observed 1800 UTC 20 January 2019
Temperature: 24.0°C (75°F)
Dewpoint: 19.0°C (66°F) [RH = 74%]
Pressure (altimeter): 29.82 inches Hg (1010.0 mb)
Winds: from the SSE (150 degrees) at 7 MPH (6 knots; 3.1 m/s)
Visibility: 6 or more miles (10+ km)
Ceiling: at least 12,000 feet AGL
Clouds: sky clear below 12,000 feet AGL
Weather: no significant weather observed at this time

METAR text: YBTL 201730Z AUTO 15006KT 9999 // NCD 25/19 Q1010
Conditions at: YBTL (TOWNSVILLE(CIV/M, AU) observed 1730 UTC 20 January 2019
Temperature: 25.0°C (77°F)
Dewpoint: 19.0°C (66°F) [RH = 69%]
Pressure (altimeter): 29.82 inches Hg (1010.0 mb)
Winds: from the SSE (150 degrees) at 7 MPH (6 knots; 3.1 m/s)
Visibility: 6 or more miles (10+ km)
Ceiling: at least 12,000 feet AGL
Clouds: sky clear below 12,000 feet AGL
Weather: no significant weather observed at this time

METAR text: YBTL 201700Z AUTO 15005KT 9999 // SCT071 25/19 Q1010
Conditions at: YBTL (TOWNSVILLE(CIV/M, AU) observed 1700 UTC 20 January 2019
Temperature: 25.0°C (77°F)
Dewpoint: 19.0°C (66°F) [RH = 69%]
Pressure (altimeter): 29.82 inches Hg (1010.0 mb)
Winds: from the SSE (150 degrees) at 6 MPH (5 knots; 2.6 m/s)
Visibility: 6 or more miles (10+ km)
Ceiling: at least 12,000 feet AGL
Clouds: scattered clouds at 7100 feet AGL
Weather: no significant weather observed at this time

METAR text: YBTL 201630Z AUTO 15006KT 9999 // OVC069 25/20 Q1011
Conditions at: YBTL (TOWNSVILLE(CIV/M, AU) observed 1630 UTC 20 January 2019
Temperature: 25.0°C (77°F)
Dewpoint: 20.0°C (68°F) [RH = 74%]
Pressure (altimeter): 29.85 inches Hg (1011.0 mb)
Winds: from the SSE (150 degrees) at 7 MPH (6 knots; 3.1 m/s)
Visibility: 6 or more miles (10+ km)
Ceiling: 6900 feet AGL
Clouds: overcast cloud deck at 6900 feet AGL
Weather: no significant weather observed at this time

METAR text: YBTL 201600Z AUTO 15007KT 9999 // SCT071 25/19 Q1011
Conditions at: YBTL (TOWNSVILLE(CIV/M, AU) observed 1600 UTC 20 January 2019
Temperature: 25.0°C (77°F)
Dewpoint: 19.0°C (66°F) [RH = 69%]
Pressure (altimeter): 29.85 inches Hg (1011.0 mb)
Winds: from the SSE (150 degrees) at 8 MPH (7 knots; 3.6 m/s)
Visibility: 6 or more miles (10+ km)
Ceiling: at least 12,000 feet AGL
Clouds: scattered clouds at 7100 feet AGL
Weather: no significant weather observed at this time

METAR text: YBTL 201530Z AUTO 14008KT 9999 // NCD 25/19 Q1012
Conditions at: YBTL (TOWNSVILLE(CIV/M, AU) observed 1530 UTC 20 January 2019
Temperature: 25.0°C (77°F)
Dewpoint: 19.0°C (66°F) [RH = 69%]
Pressure (altimeter): 29.88 inches Hg (1012.0 mb)
Winds: from the SE (140 degrees) at 9 MPH (8 knots; 4.1 m/s)
Visibility: 6 or more miles (10+ km)
Ceiling: at least 12,000 feet AGL
Clouds: sky clear below 12,000 feet AGL
Weather: no significant weather observed at this time

METAR text: YBTL 201500Z AUTO 13008KT 9999 // NCD 25/20 Q1012
Conditions at: YBTL (TOWNSVILLE(CIV/M, AU) observed 1500 UTC 20 January 2019
Temperature: 25.0°C (77°F)
Dewpoint: 20.0°C (68°F) [RH = 74%]
Pressure (altimeter): 29.88 inches Hg (1012.0 mb)
Winds: from the SE (130 degrees) at 9 MPH (8 knots; 4.1 m/s)
Visibility: 6 or more miles (10+ km)
Ceiling: at least 12,000 feet AGL
Clouds: sky clear below 12,000 feet AGL
Weather: no significant weather observed at this time

METAR text: YBTL 201430Z AUTO 14009KT 9999 // NCD 25/20 Q1012
Conditions at: YBTL (TOWNSVILLE(CIV/M, AU) observed 1430 UTC 20 January 2019
Temperature: 25.0°C (77°F)
Dewpoint: 20.0°C (68°F) [RH = 74%]
Pressure (altimeter): 29.88 inches Hg (1012.0 mb)
Winds: from the SE (140 degrees) at 10 MPH (9 knots; 4.6 m/s)
Visibility: 6 or more miles (10+ km)
Ceiling: at least 12,000 feet AGL
Clouds: sky clear below 12,000 feet AGL
Weather: no significant weather observed at this time

METAR text: YBTL 201400Z AUTO 14010KT 9999 // NCD 26/20 Q1013
Conditions at: YBTL (TOWNSVILLE(CIV/M, AU) observed 1400 UTC 20 January 2019
Temperature: 26.0°C (79°F)
Dewpoint: 20.0°C (68°F) [RH = 70%]
Pressure (altimeter): 29.91 inches Hg (1013.0 mb)
Winds: from the SE (140 degrees) at 12 MPH (10 knots; 5.1 m/s)
Visibility: 6 or more miles (10+ km)
Ceiling: at least 12,000 feet AGL
Clouds: sky clear below 12,000 feet AGL
Weather: no significant weather observed at this time

METAR text: YBTL 201330Z AUTO 13008KT 9999 // NCD 26/20 Q1013
Conditions at: YBTL (TOWNSVILLE(CIV/M, AU) observed 1330 UTC 20 January 2019
Temperature: 26.0°C (79°F)
Dewpoint: 20.0°C (68°F) [RH = 70%]
Pressure (altimeter): 29.91 inches Hg (1013.0 mb)
Winds: from the SE (130 degrees) at 9 MPH (8 knots; 4.1 m/s)
Visibility: 6 or more miles (10+ km)
Ceiling: at least 12,000 feet AGL
Clouds: sky clear below 12,000 feet AGL
Weather: no significant weather observed at this time

METAR text: YBTL 201300Z AUTO 13011KT 9999 // NCD 26/20 Q1013
Conditions at: YBTL (TOWNSVILLE(CIV/M, AU) observed 1300 UTC 20 January 2019
Temperature: 26.0°C (79°F)
Dewpoint: 20.0°C (68°F) [RH = 70%]
Pressure (altimeter): 29.91 inches Hg (1013.0 mb)
Winds: from the SE (130 degrees) at 13 MPH (11 knots; 5.7 m/s)
Visibility: 6 or more miles (10+ km)
Ceiling: at least 12,000 feet AGL
Clouds: sky clear below 12,000 feet AGL
Weather: no significant weather observed at this time

METAR text: YBTL 201230Z AUTO 12009KT 9999 // NCD 26/21 Q1013
Conditions at: YBTL (TOWNSVILLE(CIV/M, AU) observed 1230 UTC 20 January 2019
Temperature: 26.0°C (79°F)
Dewpoint: 21.0°C (70°F) [RH = 74%]
Pressure (altimeter): 29.91 inches Hg (1013.0 mb)
Winds: from the ESE (120 degrees) at 10 MPH (9 knots; 4.6 m/s)
Visibility: 6 or more miles (10+ km)
Ceiling: at least 12,000 feet AGL
Clouds: sky clear below 12,000 feet AGL
Weather: no significant weather observed at this time

METAR text: YBTL 201200Z AUTO 13008KT 9999 // NCD 26/22 Q1013
Conditions at: YBTL (TOWNSVILLE(CIV/M, AU) observed 1200 UTC 20 January 2019
Temperature: 26.0°C (79°F)
Dewpoint: 22.0°C (72°F) [RH = 79%]
Pressure (altimeter): 29.91 inches Hg (1013.0 mb)
Winds: from the SE (130 degrees) at 9 MPH (8 knots; 4.1 m/s)
Visibility: 6 or more miles (10+ km)
Ceiling: at least 12,000 feet AGL
Clouds: sky clear below 12,000 feet AGL
Weather: no significant weather observed at this time

METAR text: YBTL 201130Z AUTO 14008KT 9999 // BKN027 BKN034 27/22 Q1013
Conditions at: YBTL (TOWNSVILLE(CIV/M, AU) observed 1130 UTC 20 January 2019
Temperature: 27.0°C (81°F)
Dewpoint: 22.0°C (72°F) [RH = 74%]
Pressure (altimeter): 29.91 inches Hg (1013.0 mb)
Winds: from the SE (140 degrees) at 9 MPH (8 knots; 4.1 m/s)
Visibility: 6 or more miles (10+ km)
Ceiling: 2700 feet AGL
Clouds: broken clouds at 2700 feet AGL
broken clouds at 3400 feet AGL
Weather: no significant weather observed at this time

METAR text: YBTL 201100Z AUTO 14009KT 9999 // BKN025 BKN033 BKN056 27/21 Q1013
Conditions at: YBTL (TOWNSVILLE(CIV/M, AU) observed 1100 UTC 20 January 2019
Temperature: 27.0°C (81°F)
Dewpoint: 21.0°C (70°F) [RH = 70%]
Pressure (altimeter): 29.91 inches Hg (1013.0 mb)
Winds: from the SE (140 degrees) at 10 MPH (9 knots; 4.6 m/s)
Visibility: 6 or more miles (10+ km)
Ceiling: 2500 feet AGL
Clouds: broken clouds at 2500 feet AGL
broken clouds at 3300 feet AGL
broken clouds at 5600 feet AGL
Weather: no significant weather observed at this time

METAR text: YBTL 201030Z AUTO 10012KT 9999 // SCT025 SCT029 SCT036 28/22 Q1013
Conditions at: YBTL (TOWNSVILLE(CIV/M, AU) observed 1030 UTC 20 January 2019
Temperature: 28.0°C (82°F)
Dewpoint: 22.0°C (72°F) [RH = 70%]
Pressure (altimeter): 29.91 inches Hg (1013.0 mb)
Winds: from the E (100 degrees) at 14 MPH (12 knots; 6.2 m/s)
Visibility: 6 or more miles (10+ km)
Ceiling: at least 12,000 feet AGL
Clouds: scattered clouds at 2500 feet AGL
scattered clouds at 2900 feet AGL
scattered clouds at 3600 feet AGL
Weather: no significant weather observed at this time

METAR text: YBTL 201000Z AUTO 11012KT 9999 // BKN027 27/21 Q1012
Conditions at: YBTL (TOWNSVILLE(CIV/M, AU) observed 1000 UTC 20 January 2019
Temperature: 27.0°C (81°F)
Dewpoint: 21.0°C (70°F) [RH = 70%]
Pressure (altimeter): 29.88 inches Hg (1012.0 mb)
Winds: from the ESE (110 degrees) at 14 MPH (12 knots; 6.2 m/s)
Visibility: 6 or more miles (10+ km)
Ceiling: 2700 feet AGL
Clouds: broken clouds at 2700 feet AGL
Weather: no significant weather observed at this time

METAR text: YBTL 200930Z AUTO 10010KT 9999 // NCD 27/21 Q1012
Conditions at: YBTL (TOWNSVILLE(CIV/M, AU) observed 0930 UTC 20 January 2019
Temperature: 27.0°C (81°F)
Dewpoint: 21.0°C (70°F) [RH = 70%]
Pressure (altimeter): 29.88 inches Hg (1012.0 mb)
Winds: from the E (100 degrees) at 12 MPH (10 knots; 5.1 m/s)
Visibility: 6 or more miles (10+ km)
Ceiling: at least 12,000 feet AGL
Clouds: sky clear below 12,000 feet AGL
Weather: no significant weather observed at this time

METAR text: YBTL 200900Z AUTO 10009KT 9999 // NCD 28/20 Q1012
Conditions at: YBTL (TOWNSVILLE(CIV/M, AU) observed 0900 UTC 20 January 2019
Temperature: 28.0°C (82°F)
Dewpoint: 20.0°C (68°F) [RH = 62%]
Pressure (altimeter): 29.88 inches Hg (1012.0 mb)
Winds: from the E (100 degrees) at 10 MPH (9 knots; 4.6 m/s)
Visibility: 6 or more miles (10+ km)
Ceiling: at least 12,000 feet AGL
Clouds: sky clear below 12,000 feet AGL
Weather: no significant weather observed at this time

METAR text: YBTL 200830Z AUTO 11011KT 9999 // SCT037 28/19 Q1011
Conditions at: YBTL (TOWNSVILLE(CIV/M, AU) observed 0830 UTC 20 January 2019
Temperature: 28.0°C (82°F)
Dewpoint: 19.0°C (66°F) [RH = 58%]
Pressure (altimeter): 29.85 inches Hg (1011.0 mb)
Winds: from the ESE (110 degrees) at 13 MPH (11 knots; 5.7 m/s)
Visibility: 6 or more miles (10+ km)
Ceiling: at least 12,000 feet AGL
Clouds: scattered clouds at 3700 feet AGL
Weather: no significant weather observed at this time

METAR text: YBTL 200800Z AUTO 11015KT 9999 // NCD 29/19 Q1011
Conditions at: YBTL (TOWNSVILLE(CIV/M, AU) observed 0800 UTC 20 January 2019
Temperature: 29.0°C (84°F)
Dewpoint: 19.0°C (66°F) [RH = 55%]
Pressure (altimeter): 29.85 inches Hg (1011.0 mb)
Winds: from the ESE (110 degrees) at 17 MPH (15 knots; 7.7 m/s)
Visibility: 6 or more miles (10+ km)
Ceiling: at least 12,000 feet AGL
Clouds: sky clear below 12,000 feet AGL
Weather: no significant weather observed at this time

METAR text: YBTL 200730Z AUTO 09017KT 9999 // NCD 30/17 Q1011
Conditions at: YBTL (TOWNSVILLE(CIV/M, AU) observed 0730 UTC 20 January 2019
Temperature: 30.0°C (86°F)
Dewpoint: 17.0°C (63°F) [RH = 46%]
Pressure (altimeter): 29.85 inches Hg (1011.0 mb)
Winds: from the E (90 degrees) at 20 MPH (17 knots; 8.7 m/s)
Visibility: 6 or more miles (10+ km)
Ceiling: at least 12,000 feet AGL
Clouds: sky clear below 12,000 feet AGL
Weather: no significant weather observed at this time

METAR text: YBTL 200700Z AUTO 10017KT 9999 // NCD 30/19 Q1011
Conditions at: YBTL (TOWNSVILLE(CIV/M, AU) observed 0700 UTC 20 January 2019
Temperature: 30.0°C (86°F)
Dewpoint: 19.0°C (66°F) [RH = 52%]
Pressure (altimeter): 29.85 inches Hg (1011.0 mb)
Winds: from the E (100 degrees) at 20 MPH (17 knots; 8.7 m/s)
Visibility: 6 or more miles (10+ km)
Ceiling: at least 12,000 feet AGL
Clouds: sky clear below 12,000 feet AGL
Weather: no significant weather observed at this time

METAR text: YBTL 200630Z AUTO 10016KT 9999 // NCD 31/17 Q1010
Conditions at: YBTL (TOWNSVILLE(CIV/M, AU) observed 0630 UTC 20 January 2019
Temperature: 31.0°C (88°F)
Dewpoint: 17.0°C (63°F) [RH = 43%]
Pressure (altimeter): 29.82 inches Hg (1010.0 mb)
Winds: from the E (100 degrees) at 18 MPH (16 knots; 8.2 m/s)
Visibility: 6 or more miles (10+ km)
Ceiling: at least 12,000 feet AGL
Clouds: sky clear below 12,000 feet AGL
Weather: no significant weather observed at this time

METAR text: YBTL 200600Z AUTO 07017KT 9999 // NCD 31/19 Q1011
Conditions at: YBTL (TOWNSVILLE(CIV/M, AU) observed 0600 UTC 20 January 2019
Temperature: 31.0°C (88°F)
Dewpoint: 19.0°C (66°F) [RH = 49%]
Pressure (altimeter): 29.85 inches Hg (1011.0 mb)
Winds: from the ENE (70 degrees) at 20 MPH (17 knots; 8.7 m/s)
Visibility: 6 or more miles (10+ km)
Ceiling: at least 12,000 feet AGL
Clouds: sky clear below 12,000 feet AGL
Weather: no significant weather observed at this time

METAR text: YBTL 200530Z AUTO 08017KT 9999 // NCD 31/18 Q1011
Conditions at: YBTL (TOWNSVILLE(CIV/M, AU) observed 0530 UTC 20 January 2019
Temperature: 31.0°C (88°F)
Dewpoint: 18.0°C (64°F) [RH = 46%]
Pressure (altimeter): 29.85 inches Hg (1011.0 mb)
Winds: from the E (80 degrees) at 20 MPH (17 knots; 8.7 m/s)
Visibility: 6 or more miles (10+ km)
Ceiling: at least 12,000 feet AGL
Clouds: sky clear below 12,000 feet AGL
Weather: no significant weather observed at this time

METAR text: YBTL 200500Z AUTO 07018KT 9999 // NCD 31/18 Q1011
Conditions at: YBTL (TOWNSVILLE(CIV/M, AU) observed 0500 UTC 20 January 2019
Temperature: 31.0°C (88°F)
Dewpoint: 18.0°C (64°F) [RH = 46%]
Pressure (altimeter): 29.85 inches Hg (1011.0 mb)
Winds: from the ENE (70 degrees) at 21 MPH (18 knots; 9.3 m/s)
Visibility: 6 or more miles (10+ km)
Ceiling: at least 12,000 feet AGL
Clouds: sky clear below 12,000 feet AGL
Weather: no significant weather observed at this time

METAR text: YBTL 200430Z AUTO 08018KT 9999 // NCD 32/19 Q1011
Conditions at: YBTL (TOWNSVILLE(CIV/M, AU) observed 0430 UTC 20 January 2019
Temperature: 32.0°C (90°F)
Dewpoint: 19.0°C (66°F) [RH = 46%]
Pressure (altimeter): 29.85 inches Hg (1011.0 mb)
Winds: from the E (80 degrees) at 21 MPH (18 knots; 9.3 m/s)
Visibility: 6 or more miles (10+ km)
Ceiling: at least 12,000 feet AGL
Clouds: sky clear below 12,000 feet AGL
Weather: no significant weather observed at this time

METAR text: YBTL 200400Z AUTO 08020KT 9999 // NCD 31/20 Q1011
Conditions at: YBTL (TOWNSVILLE(CIV/M, AU) observed 0400 UTC 20 January 2019
Temperature: 31.0°C (88°F)
Dewpoint: 20.0°C (68°F) [RH = 52%]
Pressure (altimeter): 29.85 inches Hg (1011.0 mb)
Winds: from the E (80 degrees) at 23 MPH (20 knots; 10.3 m/s)
Visibility: 6 or more miles (10+ km)
Ceiling: at least 12,000 feet AGL
Clouds: sky clear below 12,000 feet AGL
Weather: no significant weather observed at this time

METAR text: YBTL 200330Z AUTO 08020KT 9999 // NCD 32/20 Q1011
Conditions at: YBTL (TOWNSVILLE(CIV/M, AU) observed 0330 UTC 20 January 2019
Temperature: 32.0°C (90°F)
Dewpoint: 20.0°C (68°F) [RH = 49%]
Pressure (altimeter): 29.85 inches Hg (1011.0 mb)
Winds: from the E (80 degrees) at 23 MPH (20 knots; 10.3 m/s)
Visibility: 6 or more miles (10+ km)
Ceiling: at least 12,000 feet AGL
Clouds: sky clear below 12,000 feet AGL
Weather: no significant weather observed at this time

METAR text: YBTL 200300Z AUTO 09019KT 9999 // NCD 31/19 Q1012
Conditions at: YBTL (TOWNSVILLE(CIV/M, AU) observed 0300 UTC 20 January 2019
Temperature: 31.0°C (88°F)
Dewpoint: 19.0°C (66°F) [RH = 49%]
Pressure (altimeter): 29.88 inches Hg (1012.0 mb)
Winds: from the E (90 degrees) at 22 MPH (19 knots; 9.8 m/s)
Visibility: 6 or more miles (10+ km)
Ceiling: at least 12,000 feet AGL
Clouds: sky clear below 12,000 feet AGL
Weather: no significant weather observed at this time

METAR text: YBTL 200230Z AUTO 08019KT 9999 // ////// 32/20 Q1012
Conditions at: YBTL (TOWNSVILLE(CIV/M, AU) observed 0230 UTC 20 January 2019
Temperature: 32.0°C (90°F)
Dewpoint: 20.0°C (68°F) [RH = 49%]
Pressure (altimeter): 29.88 inches Hg (1012.0 mb)
Winds: from the E (80 degrees) at 22 MPH (19 knots; 9.8 m/s)
Visibility: 6 or more miles (10+ km)
Ceiling: unknown
Clouds: missing
Weather: no significant weather observed at this time

METAR text: YBTL 200200Z AUTO 08015KT 9999 // SCT027 SCT032 SCT057 29/22 Q1013
Conditions at: YBTL (TOWNSVILLE(CIV/M, AU) observed 0200 UTC 20 January 2019
Temperature: 29.0°C (84°F)
Dewpoint: 22.0°C (72°F) [RH = 66%]
Pressure (altimeter): 29.91 inches Hg (1013.0 mb)
Winds: from the E (80 degrees) at 17 MPH (15 knots; 7.7 m/s)
Visibility: 6 or more miles (10+ km)
Ceiling: at least 12,000 feet AGL
Clouds: scattered clouds at 2700 feet AGL
scattered clouds at 3200 feet AGL
scattered clouds at 5700 feet AGL
Weather: no significant weather observed at this time

METAR text: YBTL 200149Z AUTO 09016G26KT 9999 // SCT032 BKN053 OVC073 30/21 Q1013
Conditions at: YBTL (TOWNSVILLE(CIV/M, AU) observed 0149 UTC 20 January 2019
Temperature: 30.0°C (86°F)
Dewpoint: 21.0°C (70°F) [RH = 59%]
Pressure (altimeter): 29.91 inches Hg (1013.0 mb)
Winds: from the E (90 degrees) at 18 MPH (16 knots; 8.2 m/s)
gusting to 30 MPH (26 knots; 13.4 m/s)
Visibility: 6 or more miles (10+ km)
Ceiling: 5300 feet AGL
Clouds: scattered clouds at 3200 feet AGL
broken clouds at 5300 feet AGL
overcast cloud deck at 7300 feet AGL
Weather: no significant weather observed at this time

METAR text: YBTL 200130Z AUTO 11015KT 9999 // SCT034 BKN051 31/20 Q1013
Conditions at: YBTL (TOWNSVILLE(CIV/M, AU) observed 0130 UTC 20 January 2019
Temperature: 31.0°C (88°F)
Dewpoint: 20.0°C (68°F) [RH = 52%]
Pressure (altimeter): 29.91 inches Hg (1013.0 mb)
Winds: from the ESE (110 degrees) at 17 MPH (15 knots; 7.7 m/s)
Visibility: 6 or more miles (10+ km)
Ceiling: 5100 feet AGL
Clouds: scattered clouds at 3400 feet AGL
broken clouds at 5100 feet AGL
Weather: no significant weather observed at this time

METAR text: YBTL 200100Z AUTO 11015KT 9999 // SCT030 BKN046 30/20 Q1013
Conditions at: YBTL (TOWNSVILLE(CIV/M, AU) observed 0100 UTC 20 January 2019
Temperature: 30.0°C (86°F)
Dewpoint: 20.0°C (68°F) [RH = 55%]
Pressure (altimeter): 29.91 inches Hg (1013.0 mb)
Winds: from the ESE (110 degrees) at 17 MPH (15 knots; 7.7 m/s)
Visibility: 6 or more miles (10+ km)
Ceiling: 4600 feet AGL
Clouds: scattered clouds at 3000 feet AGL
broken clouds at 4600 feet AGL
Weather: no significant weather observed at this time

METAR text: YBTL 200030Z AUTO 14009KT 100V160 9999 // SCT030 BKN038 BKN043 29/21 Q1013
Conditions at: YBTL (TOWNSVILLE(CIV/M, AU) observed 0030 UTC 20 January 2019
Temperature: 29.0°C (84°F)
Dewpoint: 21.0°C (70°F) [RH = 62%]
Pressure (altimeter): 29.91 inches Hg (1013.0 mb)
Winds: from the SE (140 degrees) at 10 MPH (9 knots; 4.6 m/s)
Visibility: 6 or more miles (10+ km)
Ceiling: 3800 feet AGL
Clouds: scattered clouds at 3000 feet AGL
broken clouds at 3800 feet AGL
broken clouds at 4300 feet AGL
Weather: no significant weather observed at this time

METAR text: YBTL 200000Z AUTO 15011KT 9999 // BKN030 OVC041 OVC053 28/20 Q1013
Conditions at: YBTL (TOWNSVILLE(CIV/M, AU) observed 0000 UTC 20 January 2019
Temperature: 28.0°C (82°F)
Dewpoint: 20.0°C (68°F) [RH = 62%]
Pressure (altimeter): 29.91 inches Hg (1013.0 mb)
Winds: from the SSE (150 degrees) at 13 MPH (11 knots; 5.7 m/s)
Visibility: 6 or more miles (10+ km)
Ceiling: 3000 feet AGL
Clouds: broken clouds at 3000 feet AGL
overcast cloud deck at 4100 feet AGL
overcast cloud deck at 5300 feet AGL
Weather: no significant weather observed at this time

METAR text: YBTL 192330Z AUTO 16010KT 9999 // SCT024 SCT030 BKN040 28/20 Q1013
Conditions at: YBTL (TOWNSVILLE(CIV/M, AU) observed 2330 UTC 19 January 2019
Temperature: 28.0°C (82°F)
Dewpoint: 20.0°C (68°F) [RH = 62%]
Pressure (altimeter): 29.91 inches Hg (1013.0 mb)
Winds: from the SSE (160 degrees) at 12 MPH (10 knots; 5.1 m/s)
Visibility: 6 or more miles (10+ km)
Ceiling: 4000 feet AGL
Clouds: scattered clouds at 2400 feet AGL
scattered clouds at 3000 feet AGL
broken clouds at 4000 feet AGL
Weather: no significant weather observed at this time

METAR text: YBTL 192300Z AUTO 16010KT 9999 // BKN037 OVC046 27/20 Q1013
Conditions at: YBTL (TOWNSVILLE(CIV/M, AU) observed 2300 UTC 19 January 2019
Temperature: 27.0°C (81°F)
Dewpoint: 20.0°C (68°F) [RH = 66%]
Pressure (altimeter): 29.91 inches Hg (1013.0 mb)
Winds: from the SSE (160 degrees) at 12 MPH (10 knots; 5.1 m/s)
Visibility: 6 or more miles (10+ km)
Ceiling: 3700 feet AGL
Clouds: broken clouds at 3700 feet AGL
overcast cloud deck at 4600 feet AGL
Weather: no significant weather observed at this time

METAR text: YBTL 192230Z AUTO 15011KT 9999 // SCT035 BKN044 OVC049 27/21 Q1013
Conditions at: YBTL (TOWNSVILLE(CIV/M, AU) observed 2230 UTC 19 January 2019
Temperature: 27.0°C (81°F)
Dewpoint: 21.0°C (70°F) [RH = 70%]
Pressure (altimeter): 29.91 inches Hg (1013.0 mb)
Winds: from the SSE (150 degrees) at 13 MPH (11 knots; 5.7 m/s)
Visibility: 6 or more miles (10+ km)
Ceiling: 4400 feet AGL
Clouds: scattered clouds at 3500 feet AGL
broken clouds at 4400 feet AGL
overcast cloud deck at 4900 feet AGL
Weather: no significant weather observed at this time

METAR text: YBTL 192200Z AUTO 14011KT 9999 // OVC047 OVC055 26/21 Q1013
Conditions at: YBTL (TOWNSVILLE(CIV/M, AU) observed 2200 UTC 19 January 2019
Temperature: 26.0°C (79°F)
Dewpoint: 21.0°C (70°F) [RH = 74%]
Pressure (altimeter): 29.91 inches Hg (1013.0 mb)
Winds: from the SE (140 degrees) at 13 MPH (11 knots; 5.7 m/s)
Visibility: 6 or more miles (10+ km)
Ceiling: 4700 feet AGL
Clouds: overcast cloud deck at 4700 feet AGL
overcast cloud deck at 5500 feet AGL
Weather: no significant weather observed at this time

METAR text: YBTL 192130Z AUTO 15009KT 9999 // SCT026 BKN049 BKN056 26/20 Q1012
Conditions at: YBTL (TOWNSVILLE(CIV/M, AU) observed 2130 UTC 19 January 2019
Temperature: 26.0°C (79°F)
Dewpoint: 20.0°C (68°F) [RH = 70%]
Pressure (altimeter): 29.88 inches Hg (1012.0 mb)
Winds: from the SSE (150 degrees) at 10 MPH (9 knots; 4.6 m/s)
Visibility: 6 or more miles (10+ km)
Ceiling: 4900 feet AGL
Clouds: scattered clouds at 2600 feet AGL
broken clouds at 4900 feet AGL
broken clouds at 5600 feet AGL
Weather: no significant weather observed at this time

METAR text: YBTL 192100Z AUTO 15006KT 9999 // SCT028 OVC064 25/20 Q1012
Conditions at: YBTL (TOWNSVILLE(CIV/M, AU) observed 2100 UTC 19 January 2019
Temperature: 25.0°C (77°F)
Dewpoint: 20.0°C (68°F) [RH = 74%]
Pressure (altimeter): 29.88 inches Hg (1012.0 mb)
Winds: from the SSE (150 degrees) at 7 MPH (6 knots; 3.1 m/s)
Visibility: 6 or more miles (10+ km)
Ceiling: 6400 feet AGL
Clouds: scattered clouds at 2800 feet AGL
overcast cloud deck at 6400 feet AGL
Weather: no significant weather observed at this time

METAR text: YBTL 192030Z AUTO 22005KT 9999 // SCT027 BKN070 24/20 Q1012
Conditions at: YBTL (TOWNSVILLE(CIV/M, AU) observed 2030 UTC 19 January 2019
Temperature: 24.0°C (75°F)
Dewpoint: 20.0°C (68°F) [RH = 78%]
Pressure (altimeter): 29.88 inches Hg (1012.0 mb)
Winds: from the SW (220 degrees) at 6 MPH (5 knots; 2.6 m/s)
Visibility: 6 or more miles (10+ km)
Ceiling: 7000 feet AGL
Clouds: scattered clouds at 2700 feet AGL
broken clouds at 7000 feet AGL
Weather: no significant weather observed at this time

METAR text: YBTL 192000Z AUTO 25004KT 9999 // NCD 23/20 Q1011
Conditions at: YBTL (TOWNSVILLE(CIV/M, AU) observed 2000 UTC 19 January 2019
Temperature: 23.0°C (73°F)
Dewpoint: 20.0°C (68°F) [RH = 83%]
Pressure (altimeter): 29.85 inches Hg (1011.0 mb)
Winds: from the WSW (250 degrees) at 5 MPH (4 knots; 2.1 m/s)
Visibility: 6 or more miles (10+ km)
Ceiling: at least 12,000 feet AGL
Clouds: sky clear below 12,000 feet AGL
Weather: no significant weather observed at this time

METAR text: YBTL 191930Z AUTO 19004KT 9999 // SCT024 24/20 Q1011
Conditions at: YBTL (TOWNSVILLE(CIV/M, AU) observed 1930 UTC 19 January 2019
Temperature: 24.0°C (75°F)
Dewpoint: 20.0°C (68°F) [RH = 78%]
Pressure (altimeter): 29.85 inches Hg (1011.0 mb)
Winds: from the S (190 degrees) at 5 MPH (4 knots; 2.1 m/s)
Visibility: 6 or more miles (10+ km)
Ceiling: at least 12,000 feet AGL
Clouds: scattered clouds at 2400 feet AGL
Weather: no significant weather observed at this time

METAR text: YBTL 191900Z AUTO 21007KT 9999 // SCT024 24/20 Q1010
Conditions at: YBTL (TOWNSVILLE(CIV/M, AU) observed 1900 UTC 19 January 2019
Temperature: 24.0°C (75°F)
Dewpoint: 20.0°C (68°F) [RH = 78%]
Pressure (altimeter): 29.82 inches Hg (1010.0 mb)
Winds: from the SSW (210 degrees) at 8 MPH (7 knots; 3.6 m/s)
Visibility: 6 or more miles (10+ km)
Ceiling: at least 12,000 feet AGL
Clouds: scattered clouds at 2400 feet AGL
Weather: no significant weather observed at this time

METAR text: YBTL 191830Z AUTO 21005KT 9999 // NCD 24/21 Q1010
Conditions at: YBTL (TOWNSVILLE(CIV/M, AU) observed 1830 UTC 19 January 2019
Temperature: 24.0°C (75°F)
Dewpoint: 21.0°C (70°F) [RH = 83%]
Pressure (altimeter): 29.82 inches Hg (1010.0 mb)
Winds: from the SSW (210 degrees) at 6 MPH (5 knots; 2.6 m/s)
Visibility: 6 or more miles (10+ km)
Ceiling: at least 12,000 feet AGL
Clouds: sky clear below 12,000 feet AGL
Weather: no significant weather observed at this time

METAR text: YBTL 191800Z AUTO 15005KT 9999 // NCD 24/20 Q1010
Conditions at: YBTL (TOWNSVILLE(CIV/M, AU) observed 1800 UTC 19 January 2019
Temperature: 24.0°C (75°F)
Dewpoint: 20.0°C (68°F) [RH = 78%]
Pressure (altimeter): 29.82 inches Hg (1010.0 mb)
Winds: from the SSE (150 degrees) at 6 MPH (5 knots; 2.6 m/s)
Visibility: 6 or more miles (10+ km)
Ceiling: at least 12,000 feet AGL
Clouds: sky clear below 12,000 feet AGL
Weather: no significant weather observed at this time

METAR text: YBTL 191730Z AUTO 14006KT 9999 // NCD 25/21 Q1010
Conditions at: YBTL (TOWNSVILLE(CIV/M, AU) observed 1730 UTC 19 January 2019
Temperature: 25.0°C (77°F)
Dewpoint: 21.0°C (70°F) [RH = 79%]
Pressure (altimeter): 29.82 inches Hg (1010.0 mb)
Winds: from the SE (140 degrees) at 7 MPH (6 knots; 3.1 m/s)
Visibility: 6 or more miles (10+ km)
Ceiling: at least 12,000 feet AGL
Clouds: sky clear below 12,000 feet AGL
Weather: no significant weather observed at this time

METAR text: YBTL 191700Z AUTO 15006KT 9999 // NCD 25/21 Q1010
Conditions at: YBTL (TOWNSVILLE(CIV/M, AU) observed 1700 UTC 19 January 2019
Temperature: 25.0°C (77°F)
Dewpoint: 21.0°C (70°F) [RH = 79%]
Pressure (altimeter): 29.82 inches Hg (1010.0 mb)
Winds: from the SSE (150 degrees) at 7 MPH (6 knots; 3.1 m/s)
Visibility: 6 or more miles (10+ km)
Ceiling: at least 12,000 feet AGL
Clouds: sky clear below 12,000 feet AGL
Weather: no significant weather observed at this time

METAR text: YBTL 191630Z AUTO 14006KT 9999 // NCD 25/21 Q1011
Conditions at: YBTL (TOWNSVILLE(CIV/M, AU) observed 1630 UTC 19 January 2019
Temperature: 25.0°C (77°F)
Dewpoint: 21.0°C (70°F) [RH = 79%]
Pressure (altimeter): 29.85 inches Hg (1011.0 mb)
Winds: from the SE (140 degrees) at 7 MPH (6 knots; 3.1 m/s)
Visibility: 6 or more miles (10+ km)
Ceiling: at least 12,000 feet AGL
Clouds: sky clear below 12,000 feet AGL
Weather: no significant weather observed at this time

METAR text: YBTL 191600Z AUTO 15007KT 9999 // NCD 25/21 Q1011
Conditions at: YBTL (TOWNSVILLE(CIV/M, AU) observed 1600 UTC 19 January 2019
Temperature: 25.0°C (77°F)
Dewpoint: 21.0°C (70°F) [RH = 79%]
Pressure (altimeter): 29.85 inches Hg (1011.0 mb)
Winds: from the SSE (150 degrees) at 8 MPH (7 knots; 3.6 m/s)
Visibility: 6 or more miles (10+ km)
Ceiling: at least 12,000 feet AGL
Clouds: sky clear below 12,000 feet AGL
Weather: no significant weather observed at this time

METAR text: YBTL 191530Z AUTO 13008KT 9999 // NCD 26/21 Q1011
Conditions at: YBTL (TOWNSVILLE(CIV/M, AU) observed 1530 UTC 19 January 2019
Temperature: 26.0°C (79°F)
Dewpoint: 21.0°C (70°F) [RH = 74%]
Pressure (altimeter): 29.85 inches Hg (1011.0 mb)
Winds: from the SE (130 degrees) at 9 MPH (8 knots; 4.1 m/s)
Visibility: 6 or more miles (10+ km)
Ceiling: at least 12,000 feet AGL
Clouds: sky clear below 12,000 feet AGL
Weather: no significant weather observed at this time

METAR text: YBTL 191500Z AUTO 12008KT 9999 // NCD 26/21 Q1011
Conditions at: YBTL (TOWNSVILLE(CIV/M, AU) observed 1500 UTC 19 January 2019
Temperature: 26.0°C (79°F)
Dewpoint: 21.0°C (70°F) [RH = 74%]
Pressure (altimeter): 29.85 inches Hg (1011.0 mb)
Winds: from the ESE (120 degrees) at 9 MPH (8 knots; 4.1 m/s)
Visibility: 6 or more miles (10+ km)
Ceiling: at least 12,000 feet AGL
Clouds: sky clear below 12,000 feet AGL
Weather: no significant weather observed at this time

METAR text: YBTL 191430Z AUTO 12009KT 9999 // NCD 26/21 Q1012
Conditions at: YBTL (TOWNSVILLE(CIV/M, AU) observed 1430 UTC 19 January 2019
Temperature: 26.0°C (79°F)
Dewpoint: 21.0°C (70°F) [RH = 74%]
Pressure (altimeter): 29.88 inches Hg (1012.0 mb)
Winds: from the ESE (120 degrees) at 10 MPH (9 knots; 4.6 m/s)
Visibility: 6 or more miles (10+ km)
Ceiling: at least 12,000 feet AGL
Clouds: sky clear below 12,000 feet AGL
Weather: no significant weather observed at this time

METAR text: YBTL 191400Z AUTO 13007KT 9999 // SCT072 26/21 Q1012
Conditions at: YBTL (TOWNSVILLE(CIV/M, AU) observed 1400 UTC 19 January 2019
Temperature: 26.0°C (79°F)
Dewpoint: 21.0°C (70°F) [RH = 74%]
Pressure (altimeter): 29.88 inches Hg (1012.0 mb)
Winds: from the SE (130 degrees) at 8 MPH (7 knots; 3.6 m/s)
Visibility: 6 or more miles (10+ km)
Ceiling: at least 12,000 feet AGL
Clouds: scattered clouds at 7200 feet AGL
Weather: no significant weather observed at this time

METAR text: YBTL 191330Z AUTO 16008KT 9999 // BKN074 27/21 Q1012
Conditions at: YBTL (TOWNSVILLE(CIV/M, AU) observed 1330 UTC 19 January 2019
Temperature: 27.0°C (81°F)
Dewpoint: 21.0°C (70°F) [RH = 70%]
Pressure (altimeter): 29.88 inches Hg (1012.0 mb)
Winds: from the SSE (160 degrees) at 9 MPH (8 knots; 4.1 m/s)
Visibility: 6 or more miles (10+ km)
Ceiling: 7400 feet AGL
Clouds: broken clouds at 7400 feet AGL
Weather: no significant weather observed at this time

METAR text: YBTL 191300Z AUTO 16008KT 9999 // SCT029 BKN035 27/21 Q1013
Conditions at: YBTL (TOWNSVILLE(CIV/M, AU) observed 1300 UTC 19 January 2019
Temperature: 27.0°C (81°F)
Dewpoint: 21.0°C (70°F) [RH = 70%]
Pressure (altimeter): 29.91 inches Hg (1013.0 mb)
Winds: from the SSE (160 degrees) at 9 MPH (8 knots; 4.1 m/s)
Visibility: 6 or more miles (10+ km)
Ceiling: 3500 feet AGL
Clouds: scattered clouds at 2900 feet AGL
broken clouds at 3500 feet AGL
Weather: no significant weather observed at this time

Forecast for: YBTL (TOWNSVILLE(CIV/M, AU)
Text: TAF YBTL 202209Z 2100/2124 12012KT 9999 FEW025
Forecast period: 0000 to 0100 UTC 21 January 2019
Forecast type: FROM: standard forecast or significant change
Winds: from the ESE (120 degrees) at 14 MPH (12 knots; 6.2 m/s)
Visibility: 6 or more miles 10+ km)
Ceiling: at least 12,000 feet AGL
Clouds: few clouds at 2500 feet AGL
Weather: no significant weather forecast for this period
Text: FM210100 07016KT 9999 FEW035
Forecast period: 0100 to 1000 UTC 21 January 2019
Forecast type: FROM: standard forecast or significant change
Winds: from the ENE (70 degrees) at 18 MPH (16 knots; 8.2 m/s)
Visibility: 6 or more miles 10+ km)
Ceiling: at least 12,000 feet AGL
Clouds: few clouds at 3500 feet AGL
Weather: no significant weather forecast for this period
Text: FM211000 11012KT 9999 SCT022 SCT035
Forecast period: 1000 UTC 21 January 2019 to 0000 UTC 22 January 2019
Forecast type: FROM: standard forecast or significant change
Winds: from the ESE (110 degrees) at 14 MPH (12 knots; 6.2 m/s)
Visibility: 6 or more miles 10+ km)
Ceiling: at least 12,000 feet AGL
Clouds: scattered clouds at 2200 feet AGL
scattered clouds at 3500 feet AGL
Weather: no significant weather forecast for this period